Terminal Aerodrome Forecast
Issued by NWS Cheyenne, WY

Home | Current Version | Previous Version | Text Only | Print | Product List | Glossary On
Versions: 1 2 3 4 5 6 7 8 9 10 11 12 13 14 15 16 17 18 19 20 21 22 23 24 25 26 27
000
FTUS45 KCYS 221800 AAA
TAFCYS
TAF AMD
KCYS 221849Z 2219/2318 24013G21KT P6SM VCTS SCT050 BKN100CB
      TEMPO 2219/2223 28025G40KT 5SM -TSRA BKN050CB
     FM230000 27011KT P6SM VCSH BKN080
     FM230200 28007KT P6SM SCT080
     FM231500 30016G26KT P6SM BKN080=

USA.gov is the U.S. government's official web portal to all federal, state and local government web resources and services.